Time;durP1;ratioP1;P1;durP2;ratioP2;P2;SDS_P1;SDS_P2;PMS_P1;PMS_P2;Temp;Humidity;BMP_temperature;BMP_pressure;BME280_temperature;BME280_humidity;BME280_pressure;Samples;Min_cycle;Max_cycle;Signal;HPM_P1;HPM_P2
2021/01/25 00:00:34;;;;;;;1.00;0.95;;;6.00;99.90;;;;;;5035667;28;20163;-79
2021/01/25 00:02:59;;;;;;;0.82;0.82;;;6.10;99.90;;;;;;5035648;28;20687;-78
2021/01/25 00:05:25;;;;;;;1.85;1.77;;;6.10;99.90;;;;;;5035517;28;20225;-78
2021/01/25 00:07:50;;;;;;;1.00;1.00;;;6.00;99.90;;;;;;5035665;28;20156;-78
2021/01/25 00:10:16;;;;;;;0.88;0.88;;;5.70;99.90;;;;;;5035567;28;20206;-79
2021/01/25 00:12:41;;;;;;;0.77;0.77;;;5.70;99.90;;;;;;5017749;28;20164;-78
2021/01/25 00:15:08;;;;;;;0.50;0.50;;;5.70;99.90;;;;;;5035731;28;20204;-78
2021/01/25 00:17:33;;;;;;;0.30;0.30;;;5.60;99.90;;;;;;5035410;28;20541;-78
2021/01/25 00:19:59;;;;;;;0.55;0.55;;;5.40;99.90;;;;;;5027245;28;20172;-78
2021/01/25 00:22:25;;;;;;;1.50;1.42;;;5.50;99.90;;;;;;5035281;28;20168;-78
2021/01/25 00:24:51;;;;;;;1.25;1.15;;;5.60;99.90;;;;;;5035344;28;20198;-78
2021/01/25 00:27:17;;;;;;;0.68;0.65;;;5.60;99.90;;;;;;5035215;28;20171;-79
2021/01/25 00:29:42;;;;;;;0.47;0.47;;;5.60;99.90;;;;;;5017506;28;20263;-78
2021/01/25 00:32:08;;;;;;;0.60;0.60;;;5.40;99.90;;;;;;5035184;28;20223;-78
2021/01/25 00:34:33;;;;;;;1.23;1.23;;;5.50;99.90;;;;;;5034981;28;20239;-78
2021/01/25 00:36:59;;;;;;;1.20;1.17;;;5.70;99.90;;;;;;5026968;28;20183;-78
2021/01/25 00:39:25;;;;;;;3.30;0.73;;;5.70;99.90;;;;;;5033787;28;20637;-78
2021/01/25 00:41:50;;;;;;;0.85;0.85;;;5.70;99.90;;;;;;5035003;28;20164;-78
2021/01/25 00:44:16;;;;;;;1.95;0.80;;;5.70;99.90;;;;;;5034741;28;20199;-79
2021/01/25 00:46:41;;;;;;;1.67;0.57;;;5.80;99.90;;;;;;5034780;28;20205;-78
2021/01/25 00:49:07;;;;;;;0.30;0.30;;;5.80;99.90;;;;;;5034923;28;20243;-78
2021/01/25 00:51:33;;;;;;;3.22;2.30;;;5.80;99.90;;;;;;5034831;28;20616;-78
2021/01/25 00:53:58;;;;;;;5.22;1.67;;;5.80;99.90;;;;;;5035070;28;20175;-79
2021/01/25 00:56:24;;;;;;;16.23;1.30;;;5.50;99.90;;;;;;5034569;28;20279;-78
2021/01/25 00:58:49;;;;;;;2.03;1.23;;;5.40;99.90;;;;;;5034697;28;20168;-78
2021/01/25 01:01:15;;;;;;;0.63;0.63;;;5.70;99.90;;;;;;5034695;28;20546;-78
2021/01/25 01:03:41;;;;;;;0.60;0.60;;;5.70;99.90;;;;;;5034542;28;20251;-78
2021/01/25 01:06:06;;;;;;;0.70;0.70;;;5.80;99.90;;;;;;5034439;28;20666;-78
2021/01/25 01:08:32;;;;;;;0.50;0.50;;;5.60;99.90;;;;;;5016810;28;20176;-78
2021/01/25 01:10:58;;;;;;;0.30;0.30;;;5.70;99.90;;;;;;5016672;28;20535;-78
2021/01/25 01:13:24;;;;;;;2.75;1.88;;;5.80;99.90;;;;;;5034334;28;20175;-78
2021/01/25 01:15:49;;;;;;;1.63;1.52;;;5.80;99.90;;;;;;5016652;28;20196;-78
2021/01/25 01:18:15;;;;;;;0.50;0.50;;;5.50;99.90;;;;;;5016193;28;20262;-79
2021/01/25 01:20:40;;;;;;;0.43;0.43;;;5.50;99.90;;;;;;5016557;28;20168;-79
2021/01/25 01:23:06;;;;;;;0.63;0.63;;;5.60;99.90;;;;;;5016799;28;20210;-79
2021/01/25 01:25:32;;;;;;;1.67;1.58;;;5.80;99.90;;;;;;5033868;28;20203;-78
2021/01/25 01:27:58;;;;;;;1.48;0.80;;;6.00;99.90;;;;;;5034157;28;20524;-78
2021/01/25 01:30:23;;;;;;;2.67;1.60;;;6.10;99.90;;;;;;5033975;28;20177;-78
2021/01/25 01:32:49;;;;;;;1.13;0.77;;;6.30;99.90;;;;;;5034057;28;20175;-78
2021/01/25 01:35:15;;;;;;;0.88;0.88;;;6.10;99.90;;;;;;5016199;28;20190;-79
2021/01/25 01:37:41;;;;;;;0.75;0.75;;;5.90;99.90;;;;;;5033828;28;20164;-79
2021/01/25 01:40:09;;;;;;;0.65;0.60;;;5.80;99.90;;;;;;5033849;28;20639;-78
2021/01/25 01:42:35;;;;;;;0.30;0.30;;;5.60;99.90;;;;;;5015931;28;20168;-79
2021/01/25 01:45:02;;;;;;;0.60;0.60;;;5.70;99.90;;;;;;5033580;28;20235;-78
2021/01/25 01:47:28;;;;;;;1.55;1.00;;;5.90;99.90;;;;;;5033838;28;20657;-78
2021/01/25 01:49:54;;;;;;;1.60;1.50;;;5.90;99.90;;;;;;5033694;28;20187;-78
2021/01/25 01:52:21;;;;;;;0.70;0.70;;;6.10;99.90;;;;;;5033690;28;20857;-78
2021/01/25 01:54:47;;;;;;;0.73;0.73;;;5.80;99.90;;;;;;5016192;28;20176;-78
2021/01/25 01:57:13;;;;;;;0.75;0.75;;;5.90;99.90;;;;;;5015878;28;20176;-78
2021/01/25 01:59:39;;;;;;;0.80;0.80;;;5.90;99.90;;;;;;5015808;28;20693;-79
2021/01/25 02:02:04;;;;;;;0.93;0.50;;;6.10;99.90;;;;;;5033466;28;20160;-79
2021/01/25 02:04:31;;;;;;;2.22;1.02;;;6.10;99.90;;;;;;5033462;28;20211;-78
2021/01/25 02:06:58;;;;;;;1.33;1.23;;;6.10;99.90;;;;;;5032990;28;20210;-79
2021/01/25 02:09:26;;;;;;;0.25;0.25;;;6.10;99.90;;;;;;5033424;28;20678;-78
2021/01/25 02:11:52;;;;;;;0.50;0.50;;;6.00;99.90;;;;;;5033361;28;20624;-79
2021/01/25 02:14:19;;;;;;;0.82;0.82;;;6.10;99.90;;;;;;5031790;28;20176;-78
2021/01/25 02:16:45;;;;;;;0.75;0.75;;;6.30;99.90;;;;;;5033253;28;20192;-78
2021/01/25 02:19:20;;;;;;;1.00;1.00;;;6.10;99.90;;;;;;5015505;28;20187;-79
2021/01/25 02:21:55;;;;;;;0.98;0.98;;;5.80;99.90;;;;;;5033284;28;20235;-78
2021/01/25 02:24:34;;;;;;;1.63;1.55;;;5.90;99.90;;;;;;5032985;28;20199;-78
2021/01/25 02:27:29;;;;;;;0.30;0.30;;;6.10;99.90;;;;;;5033251;28;20171;-78
2021/01/25 02:29:55;;;;;;;0.35;0.35;;;6.20;99.90;;;;;;5032066;28;20584;-79
2021/01/25 02:32:22;;;;;;;2.05;1.48;;;6.30;99.90;;;;;;5032963;28;20689;-78
2021/01/25 02:34:47;;;;;;;0.20;0.20;;;6.20;99.90;;;;;;5033042;28;20243;-78
2021/01/25 02:37:13;;;;;;;1.33;0.82;;;6.30;99.90;;;;;;5015289;28;20175;-78
2021/01/25 02:39:40;;;;;;;0.68;0.68;;;6.30;99.90;;;;;;5032950;28;20163;-78
2021/01/25 02:42:07;;;;;;;3.72;1.63;;;6.20;99.90;;;;;;5033266;28;20156;-78
2021/01/25 02:44:35;;;;;;;0.70;0.70;;;6.20;99.90;;;;;;5032626;28;20216;-78
2021/01/25 02:47:00;;;;;;;1.65;0.85;;;6.20;99.90;;;;;;5032944;28;20634;-78
2021/01/25 02:49:26;;;;;;;0.70;0.70;;;6.30;99.90;;;;;;5032940;28;20160;-78
2021/01/25 02:51:52;;;;;;;2.20;2.00;;;6.30;99.90;;;;;;5032874;28;20639;-78
2021/01/25 02:54:18;;;;;;;1.08;1.05;;;6.30;99.90;;;;;;5015273;28;20186;-78
2021/01/25 02:56:43;;;;;;;0.63;0.63;;;6.30;99.90;;;;;;5015172;28;20279;-79
2021/01/25 02:59:14;;;;;;;0.40;0.40;;;6.00;99.90;;;;;;5015252;28;20246;-79
2021/01/25 03:01:40;;;;;;;1.70;1.60;;;6.10;99.90;;;;;;5032986;28;20160;-78
2021/01/25 03:04:06;;;;;;;0.30;0.30;;;6.30;99.90;;;;;;5015362;28;20199;-78
2021/01/25 03:06:33;;;;;;;2.40;1.58;;;6.40;99.90;;;;;;5032756;28;20521;-78
2021/01/25 03:08:59;;;;;;;1.38;1.27;;;6.40;99.90;;;;;;5032793;28;20629;-78
2021/01/25 03:11:24;;;;;;;0.25;0.25;;;6.40;99.90;;;;;;5032810;28;20239;-78
2021/01/25 03:13:50;;;;;;;3.13;1.25;;;6.40;99.90;;;;;;5032756;28;20529;-78
2021/01/25 03:16:17;;;;;;;0.45;0.45;;;6.30;99.90;;;;;;5032558;28;20547;-79
2021/01/25 03:18:43;;;;;;;1.13;1.10;;;6.10;99.90;;;;;;5032939;28;20257;-78
2021/01/25 03:21:08;;;;;;;0.43;0.43;;;6.20;99.90;;;;;;5035218;28;20627;-78
2021/01/25 03:23:34;;;;;;;1.27;1.17;;;6.10;99.90;;;;;;5036509;28;20245;-78
2021/01/25 03:26:00;;;;;;;1.67;1.58;;;6.00;99.90;;;;;;5035058;28;20269;-78
2021/01/25 03:28:26;;;;;;;1.90;1.80;;;5.90;99.90;;;;;;5036437;28;20186;-78
2021/01/25 03:30:51;;;;;;;0.65;0.63;;;6.00;99.90;;;;;;5036332;28;20175;-79
2021/01/25 03:33:17;;;;;;;1.10;1.10;;;6.00;99.90;;;;;;5036209;28;20196;-79
2021/01/25 03:35:43;;;;;;;0.60;0.60;;;6.00;99.90;;;;;;5036149;28;20583;-78
2021/01/25 03:38:08;;;;;;;0.98;0.98;;;6.00;99.90;;;;;;5036269;28;20242;-79
2021/01/25 03:40:34;;;;;;;0.57;0.57;;;6.20;99.90;;;;;;5036053;28;20493;-78
2021/01/25 03:43:00;;;;;;;0.80;0.80;;;6.20;99.90;;;;;;5036094;28;20505;-78
2021/01/25 03:45:25;;;;;;;0.43;0.43;;;6.20;99.90;;;;;;5035820;28;20581;-79
2021/01/25 03:47:51;;;;;;;1.33;1.23;;;6.30;99.90;;;;;;5036019;28;20565;-78
2021/01/25 03:50:17;;;;;;;2.47;0.77;;;6.40;99.90;;;;;;5035970;28;20168;-78
2021/01/25 03:52:42;;;;;;;0.88;0.88;;;6.30;99.90;;;;;;5035894;28;20255;-79
2021/01/25 03:55:10;;;;;;;0.28;0.28;;;6.30;99.90;;;;;;5035883;28;20718;-79
2021/01/25 03:57:35;;;;;;;2.17;1.48;;;6.30;99.90;;;;;;5035822;28;20221;-78
2021/01/25 04:00:04;;;;;;;1.10;1.10;;;6.40;99.90;;;;;;5035872;28;20176;-79
2021/01/25 04:02:30;;;;;;;0.47;0.47;;;6.40;99.90;;;;;;5035729;28;20164;-79
2021/01/25 04:04:56;;;;;;;0.68;0.68;;;6.30;99.90;;;;;;5035734;28;20299;-79
2021/01/25 04:07:21;;;;;;;1.48;1.48;;;5.90;99.90;;;;;;5035678;28;20196;-78
2021/01/25 04:09:47;;;;;;;0.75;0.55;;;5.60;99.90;;;;;;5035731;28;20175;-79
2021/01/25 04:12:12;;;;;;;0.60;0.60;;;5.50;99.90;;;;;;5035468;28;20179;-78
2021/01/25 04:14:38;;;;;;;0.80;0.80;;;5.70;99.90;;;;;;5035670;28;20198;-78
2021/01/25 04:17:05;;;;;;;1.35;1.23;;;5.80;99.90;;;;;;5035265;28;20221;-79
2021/01/25 04:19:31;;;;;;;0.63;0.63;;;6.00;99.90;;;;;;5035064;28;20218;-78
2021/01/25 04:21:56;;;;;;;0.70;0.70;;;6.10;99.90;;;;;;5035526;28;20207;-78
2021/01/25 04:24:22;;;;;;;0.45;0.45;;;6.00;99.90;;;;;;5035188;28;20195;-78
2021/01/25 04:26:47;;;;;;;7.57;1.27;;;6.00;99.90;;;;;;5035200;28;20206;-78
2021/01/25 04:29:13;;;;;;;1.00;1.00;;;6.00;99.90;;;;;;5035171;28;20168;-78
2021/01/25 04:31:39;;;;;;;0.75;0.75;;;5.90;99.90;;;;;;5034908;28;20611;-78
2021/01/25 04:34:05;;;;;;;0.90;0.90;;;5.80;99.90;;;;;;5035258;28;20183;-79
2021/01/25 04:36:32;;;;;;;2.25;2.13;;;6.00;99.90;;;;;;5034899;28;20180;-78
2021/01/25 04:38:58;;;;;;;1.30;1.30;;;5.90;99.90;;;;;;5035061;28;20174;-79
2021/01/25 04:41:25;;;;;;;0.75;0.75;;;6.00;99.90;;;;;;5035002;28;20243;-78
2021/01/25 04:43:51;;;;;;;1.42;1.42;;;5.90;99.90;;;;;;5033685;28;20262;-79
2021/01/25 04:46:16;;;;;;;1.10;1.05;;;6.00;99.90;;;;;;5034694;28;20254;-79
2021/01/25 04:48:45;;;;;;;0.20;0.20;;;5.90;99.90;;;;;;5034684;28;20222;-79
2021/01/25 04:51:12;;;;;;;0.70;0.70;;;5.90;99.90;;;;;;5034767;28;20477;-80
2021/01/25 04:53:40;;;;;;;0.55;0.50;;;6.00;99.90;;;;;;5034625;28;20230;-79
2021/01/25 04:56:07;;;;;;;1.17;1.15;;;6.00;99.90;;;;;;5034680;28;20188;-78
2021/01/25 04:58:34;;;;;;;1.30;1.25;;;5.80;99.90;;;;;;5034708;28;20242;-79
2021/01/25 05:01:00;;;;;;;4.20;0.90;;;6.10;99.90;;;;;;5034461;28;20689;-79
2021/01/25 05:03:26;;;;;;;2.85;1.55;;;6.20;99.90;;;;;;5033315;28;20222;-79
2021/01/25 05:05:52;;;;;;;0.85;0.85;;;6.20;99.90;;;;;;5034301;28;20231;-79
2021/01/25 05:08:17;;;;;;;2.47;2.38;;;6.30;99.90;;;;;;5016564;28;20658;-78
2021/01/25 05:10:43;;;;;;;0.47;0.47;;;6.30;99.90;;;;;;5016721;28;20584;-79
2021/01/25 05:13:08;;;;;;;1.02;1.02;;;6.30;99.90;;;;;;5034334;28;20214;-79
2021/01/25 05:15:35;;;;;;;2.15;1.95;;;6.40;99.90;;;;;;5034489;28;20187;-79
2021/01/25 05:18:11;;;;;;;1.02;0.98;;;6.30;99.90;;;;;;5034267;28;20215;-78
2021/01/25 05:20:37;;;;;;;0.52;0.52;;;6.40;99.90;;;;;;5016497;28;20676;-79
2021/01/25 05:23:14;;;;;;;3.58;1.08;;;6.60;99.90;;;;;;5034142;28;20191;-79
2021/01/25 05:25:41;;;;;;;0.47;0.47;;;6.50;99.90;;;;;;5032652;28;20741;-79
2021/01/25 05:28:12;;;;;;;0.65;0.65;;;6.50;99.90;;;;;;5034065;28;20588;-79
2021/01/25 05:30:38;;;;;;;0.50;0.50;;;6.40;99.90;;;;;;5034073;28;20172;-79
2021/01/25 05:33:04;;;;;;;0.95;0.95;;;6.40;99.90;;;;;;5033933;28;20171;-78
2021/01/25 05:35:32;;;;;;;1.92;1.77;;;6.50;99.90;;;;;;5033465;28;20250;-79
2021/01/25 05:38:00;;;;;;;2.35;1.27;;;6.40;99.90;;;;;;5016199;28;20160;-79
2021/01/25 05:40:27;;;;;;;0.70;0.70;;;6.50;99.90;;;;;;5033387;28;20650;-79
2021/01/25 05:42:53;;;;;;;2.58;2.38;;;6.50;99.90;;;;;;5033041;28;20545;-78
2021/01/25 05:45:19;;;;;;;1.58;1.48;;;6.40;99.90;;;;;;5033442;28;20250;-79
2021/01/25 05:47:53;;;;;;;1.55;0.93;;;6.20;99.90;;;;;;5033671;28;20627;-79
2021/01/25 05:50:34;;;;;;;3.65;1.55;;;6.10;99.90;;;;;;5033637;28;20174;-79
2021/01/25 05:53:02;;;;;;;0.90;0.90;;;6.20;99.90;;;;;;5015935;28;20168;-78
2021/01/25 05:55:29;;;;;;;2.45;2.25;;;6.30;99.90;;;;;;5033392;28;20713;-79
2021/01/25 05:57:55;;;;;;;0.75;0.75;;;6.10;99.90;;;;;;5033529;28;20211;-78
2021/01/25 06:00:22;;;;;;;1.50;1.48;;;6.10;99.90;;;;;;5033296;28;20651;-78
2021/01/25 06:02:50;;;;;;;0.47;0.47;;;6.30;99.90;;;;;;5033406;28;20204;-78
2021/01/25 06:05:30;;;;;;;1.30;0.98;;;6.00;99.90;;;;;;5033183;28;20241;-79
2021/01/25 06:08:13;;;;;;;2.45;0.95;;;6.10;99.90;;;;;;5033271;28;20156;-78
2021/01/25 06:11:04;;;;;;;0.73;0.50;;;6.00;99.90;;;;;;5015581;28;20175;-78
2021/01/25 06:13:36;;;;;;;0.82;0.82;;;6.30;99.90;;;;;;5015483;28;20230;-78
2021/01/25 06:16:05;;;;;;;0.40;0.40;;;6.10;99.90;;;;;;5033026;28;20206;-78
2021/01/25 06:18:32;;;;;;;1.65;0.85;;;6.00;99.90;;;;;;5033179;28;20210;-78
2021/01/25 06:21:00;;;;;;;0.70;0.70;;;6.10;99.90;;;;;;5033254;28;20222;-78
2021/01/25 06:23:26;;;;;;;2.08;1.40;;;6.30;99.90;;;;;;5033063;28;20172;-78
2021/01/25 06:25:52;;;;;;;1.52;1.42;;;6.30;99.90;;;;;;5032894;28;20633;-78
2021/01/25 06:28:19;;;;;;;1.13;1.08;;;6.20;99.90;;;;;;5033015;28;20243;-78
2021/01/25 06:30:47;;;;;;;0.68;0.68;;;6.10;99.90;;;;;;5033072;28;20163;-78
2021/01/25 06:33:18;;;;;;;1.85;1.73;;;6.10;99.90;;;;;;5031460;28;20167;-79
2021/01/25 06:35:50;;;;;;;0.50;0.50;;;6.00;99.90;;;;;;5032682;28;20222;-78
2021/01/25 06:38:18;;;;;;;0.77;0.77;;;5.90;99.90;;;;;;5032804;28;20174;-78
2021/01/25 06:40:45;;;;;;;2.67;2.42;;;5.70;99.90;;;;;;5032629;28;20160;-78
2021/01/25 06:43:15;;;;;;;1.77;1.50;;;5.70;99.90;;;;;;5032503;28;20191;-78
2021/01/25 06:45:44;;;;;;;2.08;1.98;;;5.70;99.90;;;;;;5032526;28;20223;-78
2021/01/25 06:48:12;;;;;;;3.60;2.20;;;5.60;99.90;;;;;;5032784;28;20198;-78
2021/01/25 06:50:38;;;;;;;1.10;0.93;;;5.60;99.90;;;;;;5032713;28;20168;-78
2021/01/25 06:53:04;;;;;;;1.38;1.20;;;5.60;99.90;;;;;;5033647;28;20568;-87
2021/01/25 06:55:33;;;;;;;1.77;1.67;;;5.60;99.90;;;;;;5037287;28;20183;-82
2021/01/25 06:58:04;;;;;;;1.02;0.88;;;5.70;99.90;;;;;;5019065;28;20183;-78
2021/01/25 07:00:33;;;;;;;2.47;2.28;;;5.80;99.90;;;;;;5036584;28;20326;-78
2021/01/25 07:03:02;;;;;;;2.28;1.08;;;5.70;99.90;;;;;;5036711;28;20168;-78
2021/01/25 07:05:32;;;;;;;1.83;1.38;;;5.60;99.90;;;;;;5036959;28;20647;-79
2021/01/25 07:08:26;;;;;;;1.55;1.45;;;5.60;99.90;;;;;;5035365;28;20168;-80
2021/01/25 07:10:58;;;;;;;1.85;1.08;;;5.40;99.90;;;;;;5035775;28;20203;-78
2021/01/25 07:13:35;;;;;;;1.17;1.17;;;5.00;99.90;;;;;;5036389;28;20168;-76
2021/01/25 07:16:02;;;;;;;0.70;0.70;;;4.60;99.90;;;;;;5034600;28;20227;-78
2021/01/25 07:18:29;;;;;;;1.30;1.30;;;4.40;99.90;;;;;;5036126;28;20171;-78
2021/01/25 07:20:57;;;;;;;2.15;1.30;;;4.50;99.90;;;;;;5036220;28;20534;-80
2021/01/25 07:23:24;;;;;;;3.15;2.53;;;4.30;99.90;;;;;;5035906;28;20708;-79
2021/01/25 07:25:58;;;;;;;2.67;1.42;;;4.30;99.90;;;;;;5035844;28;20212;-78
2021/01/25 07:28:25;;;;;;;1.00;1.00;;;4.20;99.90;;;;;;5036004;28;20523;-76
2021/01/25 07:30:51;;;;;;;8.68;2.20;;;4.40;99.90;;;;;;5035759;28;20168;-76
2021/01/25 07:33:17;;;;;;;4.10;0.77;;;4.40;99.90;;;;;;5035668;28;20164;-77
2021/01/25 07:35:44;;;;;;;0.50;0.50;;;4.40;99.90;;;;;;5036085;28;20280;-78
2021/01/25 07:38:10;;;;;;;0.98;0.98;;;4.30;99.90;;;;;;5035931;28;20170;-77
2021/01/25 07:40:35;;;;;;;1.67;1.58;;;4.20;99.90;;;;;;5035366;28;20164;-78
2021/01/25 07:43:04;;;;;;;0.70;0.70;;;4.00;99.90;;;;;;5035553;28;20511;-78
2021/01/25 07:45:30;;;;;;;0.73;0.73;;;3.70;99.90;;;;;;5035371;28;20281;-77
2021/01/25 07:47:56;;;;;;;2.03;1.95;;;3.70;99.90;;;;;;5035948;28;20210;-77
2021/01/25 07:50:22;;;;;;;0.75;0.75;;;3.80;99.90;;;;;;5035750;28;20164;-80
2021/01/25 07:53:01;;;;;;;3.63;1.52;;;3.70;99.90;;;;;;5035524;28;20175;-78
2021/01/25 07:55:27;;;;;;;1.55;1.45;;;3.80;99.90;;;;;;5035255;28;20643;-77
2021/01/25 07:57:55;;;;;;;1.20;1.20;;;3.70;99.90;;;;;;5035555;28;20273;-77
2021/01/25 08:00:23;;;;;;;1.13;1.13;;;3.60;99.90;;;;;;5035613;28;20186;-78
2021/01/25 08:03:05;;;;;;;1.27;1.27;;;3.50;99.90;;;;;;5035076;28;20503;-77
2021/01/25 08:05:31;;;;;;;1.95;1.85;;;3.60;99.90;;;;;;5034605;28;20227;-77
2021/01/25 08:07:57;;;;;;;0.43;0.43;;;3.80;99.90;;;;;;5036211;28;20152;-90
2021/01/25 08:10:23;;;;;;;0.80;0.80;;;3.70;99.90;;;;;;5019392;28;20216;-91
2021/01/25 08:12:49;;;;;;;8.88;2.47;;;3.30;99.90;;;;;;5036712;28;20296;-86
2021/01/25 08:15:29;;;;;;;2.58;2.15;;;3.40;99.90;;;;;;5036736;28;20196;-90
2021/01/25 08:17:59;;;;;;;1.40;1.33;;;3.40;99.90;;;;;;5023161;28;20168;-82
2021/01/25 08:20:29;;;;;;;2.70;2.60;;;3.40;99.90;;;;;;5017830;28;20171;-77
2021/01/25 08:23:20;;;;;;;2.15;2.05;;;3.50;99.90;;;;;;5035837;28;20172;-87
2021/01/25 08:25:56;;;;;;;0.65;0.65;;;3.50;99.90;;;;;;5022951;28;20250;-86
2021/01/25 08:28:24;;;;;;;0.90;0.90;;;3.50;99.90;;;;;;5019350;28;20164;-91
2021/01/25 08:30:50;;;;;;;2.40;2.20;;;3.70;99.90;;;;;;5036481;28;20198;-77
2021/01/25 08:33:35;;;;;;;0.90;0.80;;;3.70;99.90;;;;;;5023862;28;20172;-78
2021/01/25 08:36:02;;;;;;;1.05;1.02;;;3.60;99.90;;;;;;5014200;28;20558;-77
2021/01/25 08:38:34;;;;;;;0.55;0.55;;;3.50;99.90;;;;;;5033548;28;20631;-80
2021/01/25 08:41:13;;;;;;;1.85;1.52;;;3.30;99.90;;;;;;5033863;28;20290;-77
2021/01/25 08:43:39;;;;;;;0.95;0.95;;;3.40;99.90;;;;;;5031145;28;20176;-80
2021/01/25 08:46:13;;;;;;;1.27;1.27;;;3.50;99.90;;;;;;4997627;28;20939;-80
2021/01/25 08:48:40;;;;;;;1.85;1.48;;;3.60;99.90;;;;;;5015363;28;20169;-82
2021/01/25 08:51:18;;;;;;;6.47;3.25;;;3.70;99.90;;;;;;5014075;28;20176;-80
2021/01/25 08:53:44;;;;;;;2.08;1.55;;;4.00;99.90;;;;;;5032714;28;20258;-80
2021/01/25 08:56:18;;;;;;;1.98;1.67;;;4.00;99.90;;;;;;5029616;28;20184;-79
2021/01/25 08:58:45;;;;;;;3.38;2.25;;;4.10;99.90;;;;;;5032486;28;20697;-80
2021/01/25 09:01:16;;;;;;;1.50;1.40;;;4.00;99.90;;;;;;5012027;28;20644;-84
2021/01/25 09:03:42;;;;;;;2.10;1.98;;;4.10;99.90;;;;;;5012252;28;20206;-79
2021/01/25 09:06:10;;;;;;;1.80;1.70;;;3.90;99.90;;;;;;5029889;28;20223;-79
2021/01/25 09:08:35;;;;;;;2.70;1.48;;;3.80;99.90;;;;;;5005436;28;20161;-82
2021/01/25 09:11:01;;;;;;;9.43;2.47;;;4.20;99.90;;;;;;5024604;28;20313;-83
2021/01/25 09:13:26;;;;;;;1.33;1.23;;;4.20;99.90;;;;;;5013994;28;20197;-81
2021/01/25 09:15:52;;;;;;;1.23;1.15;;;4.20;99.90;;;;;;5014044;28;20246;-82
2021/01/25 09:18:18;;;;;;;1.60;1.55;;;4.20;99.90;;;;;;5014937;28;20259;-83
2021/01/25 09:20:43;;;;;;;2.15;1.80;;;4.10;99.90;;;;;;5029455;28;20172;-80
2021/01/25 09:23:09;;;;;;;1.90;1.80;;;4.00;99.90;;;;;;5008469;28;20531;-79
2021/01/25 09:25:34;;;;;;;3.45;1.60;;;3.90;99.90;;;;;;5007826;28;20219;-78
2021/01/25 09:28:00;;;;;;;3.08;2.85;;;3.80;99.90;;;;;;5025797;28;20608;-83
2021/01/25 09:30:28;;;;;;;1.30;1.30;;;3.90;99.90;;;;;;5032378;28;20175;-81
2021/01/25 09:32:54;;;;;;;2.50;1.42;;;4.00;99.90;;;;;;5032664;28;20631;-81
2021/01/25 09:35:21;;;;;;;3.63;1.30;;;4.20;99.90;;;;;;5015311;28;20187;-82
2021/01/25 09:37:47;;;;;;;2.38;2.08;;;4.40;99.90;;;;;;5014997;28;20176;-84
2021/01/25 09:40:13;;;;;;;0.73;0.73;;;4.60;99.90;;;;;;5014195;28;20520;-83
2021/01/25 09:42:39;;;;;;;3.45;3.22;;;4.70;99.90;;;;;;5016452;28;20272;-81
2021/01/25 09:45:06;;;;;;;1.70;1.55;;;4.90;99.90;;;;;;5012476;28;20306;-81
2021/01/25 09:47:31;;;;;;;1.73;1.63;;;4.70;99.90;;;;;;5015163;28;20231;-83
2021/01/25 09:49:57;;;;;;;2.33;2.17;;;4.80;99.90;;;;;;5032043;28;20303;-83
2021/01/25 09:52:24;;;;;;;1.90;1.45;;;5.10;99.90;;;;;;5032556;28;20682;-83
2021/01/25 09:54:49;;;;;;;2.75;2.53;;;4.80;99.90;;;;;;5032220;28;20231;-83
2021/01/25 09:57:15;;;;;;;3.33;1.90;;;4.70;99.90;;;;;;5023846;28;20264;-82
2021/01/25 09:59:40;;;;;;;1.42;0.95;;;4.70;99.90;;;;;;5004544;28;20171;-82
2021/01/25 10:02:06;;;;;;;2.20;2.10;;;4.90;99.90;;;;;;5031912;28;20186;-81
2021/01/25 10:04:31;;;;;;;0.50;0.50;;;4.90;99.90;;;;;;5013331;28;20715;-82
2021/01/25 10:06:57;;;;;;;2.42;2.22;;;4.90;99.90;;;;;;5014399;28;20214;-80
2021/01/25 10:09:22;;;;;;;1.70;1.38;;;4.90;99.90;;;;;;5014071;28;20167;-82
2021/01/25 10:11:48;;;;;;;3.42;2.85;;;5.00;99.90;;;;;;5014031;28;20241;-81
2021/01/25 10:14:14;;;;;;;1.23;1.23;;;5.20;99.90;;;;;;5007695;28;20640;-81
2021/01/25 10:16:39;;;;;;;2.95;2.75;;;5.20;99.90;;;;;;5008791;28;20196;-80
2021/01/25 10:19:05;;;;;;;0.82;0.80;;;5.00;99.90;;;;;;5015814;28;20247;-81
2021/01/25 10:21:31;;;;;;;5.22;2.13;;;5.10;99.90;;;;;;5010558;28;20184;-82
2021/01/25 10:23:56;;;;;;;0.82;0.82;;;5.40;99.90;;;;;;5011626;28;20183;-81
2021/01/25 10:26:22;;;;;;;7.38;2.67;;;5.50;99.90;;;;;;5012227;28;20539;-81
2021/01/25 10:28:49;;;;;;;0.70;0.70;;;5.50;99.90;;;;;;5010399;28;20169;-80
2021/01/25 10:31:14;;;;;;;1.48;1.45;;;5.40;99.90;;;;;;5010559;28;20168;-81
2021/01/25 10:33:40;;;;;;;1.77;1.70;;;5.30;99.90;;;;;;5004473;28;20180;-81
2021/01/25 10:36:06;;;;;;;2.80;2.70;;;5.10;99.90;;;;;;5003937;28;21393;-83
2021/01/25 10:38:31;;;;;;;1.15;1.15;;;5.30;99.90;;;;;;5008456;28;20181;-84
2021/01/25 10:40:57;;;;;;;2.03;1.92;;;5.50;99.90;;;;;;4973566;28;20283;-82
2021/01/25 10:43:23;;;;;;;1.23;1.23;;;5.40;99.90;;;;;;4996328;28;20179;-84
2021/01/25 10:45:48;;;;;;;0.88;0.88;;;5.20;99.90;;;;;;4999205;28;20329;-79
2021/01/25 10:48:14;;;;;;;2.03;1.92;;;5.40;99.90;;;;;;5025889;28;20269;-79
2021/01/25 10:50:39;;;;;;;3.72;2.92;;;5.30;99.90;;;;;;5003806;28;20606;-79
2021/01/25 10:53:05;;;;;;;4.13;2.42;;;5.50;99.90;;;;;;5015851;28;20179;-78
2021/01/25 10:55:31;;;;;;;2.25;2.05;;;5.70;99.90;;;;;;5001536;28;20196;-79
2021/01/25 10:57:56;;;;;;;1.58;1.23;;;5.50;99.90;;;;;;5030551;28;20164;-79
2021/01/25 11:00:24;;;;;;;0.95;0.95;;;5.40;99.90;;;;;;5031045;28;20164;-79
2021/01/25 11:02:51;;;;;;;3.42;1.65;;;5.30;99.90;;;;;;5031139;28;20171;-79
2021/01/25 11:05:20;;;;;;;2.10;1.95;;;5.20;99.90;;;;;;5016516;28;20212;-80
2021/01/25 11:07:46;;;;;;;1.73;1.63;;;5.20;99.90;;;;;;5011668;28;20250;-82
2021/01/25 11:10:17;;;;;;;1.08;1.08;;;5.40;99.90;;;;;;5009241;28;20172;-83
2021/01/25 11:12:43;;;;;;;1.08;1.08;;;5.10;99.90;;;;;;5013421;28;20164;-82
2021/01/25 11:15:09;;;;;;;0.85;0.85;;;5.20;99.90;;;;;;4997089;28;20195;-83
2021/01/25 11:17:35;;;;;;;2.55;1.77;;;5.10;99.90;;;;;;5012411;28;20172;-77
2021/01/25 11:20:02;;;;;;;10.45;2.75;;;5.00;99.90;;;;;;5011172;28;20842;-77
2021/01/25 11:22:27;;;;;;;1.60;1.50;;;4.90;99.90;;;;;;5009711;28;20203;-77
2021/01/25 11:24:53;;;;;;;4.07;3.33;;;4.90;99.90;;;;;;5012397;28;20687;-76
2021/01/25 11:27:18;;;;;;;2.10;1.90;;;5.00;99.90;;;;;;5025987;28;20186;-76
2021/01/25 11:29:44;;;;;;;1.70;1.63;;;5.20;99.90;;;;;;5032123;28;20180;-76
2021/01/25 11:32:14;;;;;;;5.72;1.90;;;5.30;99.90;;;;;;5032593;28;20160;-76
2021/01/25 11:34:40;;;;;;;2.85;2.65;;;5.40;99.90;;;;;;5014499;28;20183;-76
2021/01/25 11:37:07;;;;;;;2.40;2.30;;;5.60;99.90;;;;;;5031556;28;20171;-77
2021/01/25 11:39:32;;;;;;;1.05;1.05;;;5.70;99.90;;;;;;5031946;28;20180;-77
2021/01/25 11:41:58;;;;;;;4.40;2.88;;;5.60;99.90;;;;;;5018049;28;20156;-76
2021/01/25 11:44:25;;;;;;;1.90;1.80;;;5.20;99.90;;;;;;5029028;28;20549;-76
2021/01/25 11:46:51;;;;;;;2.65;2.33;;;5.30;99.90;;;;;;5017196;28;20200;-76
2021/01/25 11:49:17;;;;;;;2.47;2.35;;;5.50;99.90;;;;;;5032739;28;20174;-77
2021/01/25 11:51:43;;;;;;;1.33;1.33;;;5.50;99.90;;;;;;5034234;28;20303;-77
2021/01/25 11:54:10;;;;;;;6.03;2.75;;;5.60;99.90;;;;;;5035336;28;20168;-77
2021/01/25 11:56:36;;;;;;;2.45;2.00;;;5.60;99.90;;;;;;5035082;28;20242;-77
2021/01/25 11:59:02;;;;;;;3.28;1.33;;;5.70;99.90;;;;;;5035284;28;20560;-77
2021/01/25 12:01:27;;;;;;;2.15;2.05;;;5.70;99.90;;;;;;5035458;28;20164;-76
2021/01/25 12:03:53;;;;;;;2.22;2.13;;;5.80;99.90;;;;;;5017338;28;20314;-76
2021/01/25 12:06:19;;;;;;;4.68;2.85;;;5.40;99.90;;;;;;5034718;28;20216;-76
2021/01/25 12:08:44;;;;;;;1.95;1.85;;;5.30;99.90;;;;;;5035005;28;20171;-76
2021/01/25 12:11:10;;;;;;;1.50;1.25;;;5.40;99.90;;;;;;5017229;28;20171;-76
2021/01/25 12:13:35;;;;;;;4.78;1.50;;;5.50;99.90;;;;;;5031811;28;20539;-76
2021/01/25 12:16:01;;;;;;;0.98;0.98;;;5.40;99.90;;;;;;5034782;28;20249;-77
2021/01/25 12:18:27;;;;;;;1.67;1.38;;;5.40;99.90;;;;;;5033439;28;20546;-78
2021/01/25 12:20:53;;;;;;;3.42;1.85;;;5.50;99.90;;;;;;5017376;28;20172;-77
2021/01/25 12:23:19;;;;;;;0.45;0.45;;;5.80;99.90;;;;;;5034987;28;20176;-77
2021/01/25 12:25:45;;;;;;;7.85;2.45;;;5.90;99.90;;;;;;5034716;28;20203;-78
2021/01/25 12:28:11;;;;;;;1.88;1.77;;;5.90;99.90;;;;;;5034915;28;20243;-77
2021/01/25 12:30:36;;;;;;;3.05;2.15;;;6.00;99.90;;;;;;5034685;28;20180;-75
2021/01/25 12:33:02;;;;;;;3.70;1.35;;;6.10;99.90;;;;;;5017046;28;20171;-77
2021/01/25 12:35:29;;;;;;;2.78;1.20;;;6.10;99.90;;;;;;5034791;28;20236;-78
2021/01/25 12:37:56;;;;;;;1.38;1.27;;;6.10;99.90;;;;;;5033158;28;20168;-77
2021/01/25 12:40:23;;;;;;;1.83;1.42;;;6.10;99.90;;;;;;5034096;28;20251;-77
2021/01/25 12:42:49;;;;;;;3.30;2.58;;;6.00;99.90;;;;;;5034126;28;20214;-76
2021/01/25 12:45:14;;;;;;;4.45;1.00;;;5.80;99.90;;;;;;5034374;28;20274;-77
2021/01/25 12:47:40;;;;;;;0.55;0.55;;;5.70;99.90;;;;;;5033967;28;20255;-77
2021/01/25 12:50:07;;;;;;;1.08;1.02;;;5.50;99.90;;;;;;5034255;28;20172;-78
2021/01/25 12:52:33;;;;;;;0.52;0.52;;;5.50;99.90;;;;;;5034350;28;20171;-79
2021/01/25 12:55:03;;;;;;;2.25;1.02;;;5.60;99.90;;;;;;5034270;28;20607;-74
2021/01/25 12:57:29;;;;;;;1.00;1.00;;;5.80;99.90;;;;;;5034403;28;20546;-76